createdAt,value
2023-01-02T00:02:10.514Z,2.61
2023-01-02T00:04:58.270Z,2.65
2023-01-02T00:07:45.981Z,2.43
2023-01-02T00:10:33.648Z,2.44
2023-01-02T00:13:21.398Z,2.55
2023-01-02T00:16:09.521Z,2.43
2023-01-02T00:18:57.249Z,2.27
2023-01-02T00:21:44.951Z,2.37
2023-01-02T00:24:32.676Z,2.44
2023-01-02T00:27:20.278Z,2.32
2023-01-02T00:30:08.684Z,2.24
2023-01-02T00:32:56.625Z,2.20
2023-01-02T00:35:44.368Z,2.29
2023-01-02T00:38:32.021Z,2.28
2023-01-02T00:41:21.636Z,2.24
2023-01-02T00:44:09.318Z,2.23
2023-01-02T00:46:57.164Z,1.96
2023-01-02T00:49:44.844Z,2.17
2023-01-02T00:52:32.592Z,2.16
2023-01-02T00:55:20.235Z,2.05
2023-01-02T00:58:07.929Z,2.05
2023-01-02T01:00:55.740Z,2.03
2023-01-02T01:03:43.858Z,2.07
2023-01-02T01:06:31.462Z,1.84
2023-01-02T01:09:20.190Z,1.61
2023-01-02T01:12:08.189Z,2.01
2023-01-02T01:14:55.874Z,1.92
2023-01-02T01:17:43.810Z,1.91
2023-01-02T01:20:31.460Z,2.02
2023-01-02T01:23:19.146Z,1.97
2023-01-02T01:26:08.819Z,2.00
2023-01-02T01:28:57.079Z,1.91
2023-01-02T01:31:44.791Z,1.84
2023-01-02T01:34:32.571Z,1.82
2023-01-02T01:37:20.115Z,1.75
2023-01-02T01:40:08.320Z,1.76
2023-01-02T01:43:00.706Z,1.73
2023-01-02T01:45:48.637Z,1.67
2023-01-02T01:48:37.011Z,1.41
2023-01-02T01:51:27.831Z,1.51
2023-01-02T01:54:22.091Z,1.57
2023-01-02T01:57:59.510Z,1.57
2023-01-02T02:00:48.444Z,1.55
2023-01-02T02:03:37.778Z,1.53
2023-01-02T02:06:25.602Z,1.54
2023-01-02T02:09:19.385Z,1.66
2023-01-02T02:12:08.231Z,1.75
2023-01-02T02:14:55.887Z,1.70
2023-01-02T02:18:04.894Z,1.71
2023-01-02T02:21:09.023Z,1.63
2023-01-02T02:24:11.332Z,1.50
2023-01-02T02:26:58.786Z,1.56
2023-01-02T02:30:05.028Z,1.64
2023-01-02T02:33:15.673Z,1.60
2023-01-02T02:36:34.951Z,1.63
2023-01-02T02:39:40.890Z,1.61
2023-01-02T02:42:55.893Z,1.59
2023-01-02T02:46:03.362Z,1.63
2023-01-02T02:49:04.902Z,1.66
2023-01-02T02:52:07.756Z,1.54
2023-01-02T02:55:07.579Z,1.54
2023-01-02T02:57:57.392Z,1.41
2023-01-02T03:00:45.022Z,1.21
2023-01-02T03:03:32.843Z,1.31
2023-01-02T03:06:36.676Z,1.26
2023-01-02T03:09:43.926Z,1.28
2023-01-02T03:12:50.280Z,1.23
2023-01-02T03:15:51.636Z,1.18
2023-01-02T03:18:45.965Z,1.17
2023-01-02T03:21:41.715Z,1.22
2023-01-02T03:24:30.938Z,1.10
2023-01-02T03:27:24.281Z,1.20
2023-01-02T03:30:17.594Z,1.08
2023-01-02T03:33:13.562Z,1.09
2023-01-02T03:36:06.846Z,0.94
2023-01-02T03:39:03.903Z,0.86
2023-01-02T03:42:02.680Z,1.07
2023-01-02T03:45:16.443Z,0.87
2023-01-02T03:48:15.981Z,1.00
2023-01-02T03:51:04.573Z,0.92
2023-01-02T03:53:53.530Z,0.76
2023-01-02T03:56:52.457Z,0.90
2023-01-02T03:59:58.584Z,0.86
2023-01-02T04:03:03.003Z,0.83
2023-01-02T04:06:00.618Z,0.75
2023-01-02T04:08:56.999Z,0.80
2023-01-02T04:11:51.002Z,0.83
2023-01-02T04:14:46.024Z,0.67
2023-01-02T04:17:41.098Z,0.67
2023-01-02T04:20:35.320Z,0.73
2023-01-02T04:23:32.576Z,0.68
2023-01-02T04:26:49.792Z,0.82
2023-01-02T04:29:37.600Z,0.78
2023-01-02T04:32:34.017Z,0.63
2023-01-02T04:35:24.372Z,0.52
2023-01-02T04:38:12.753Z,0.46
2023-01-02T04:41:00.727Z,0.56
2023-01-02T04:43:49.506Z,0.50
2023-01-02T04:46:37.280Z,0.48
2023-01-02T04:49:26.896Z,0.52
2023-01-02T04:52:14.637Z,0.50
2023-01-02T04:55:08.228Z,0.52
2023-01-02T04:57:57.877Z,0.45
2023-01-02T05:00:45.717Z,0.50
2023-01-02T05:03:33.660Z,0.47
2023-01-02T05:06:22.874Z,0.53
2023-01-02T05:09:10.794Z,0.51
2023-01-02T05:12:01.222Z,0.35
2023-01-02T05:14:57.714Z,0.39
2023-01-02T05:17:45.423Z,0.42
2023-01-02T05:24:00.947Z,0.15
2023-01-02T05:27:05.133Z,0.22
2023-01-02T05:29:52.919Z,0.43
2023-01-02T05:32:40.576Z,0.20
2023-01-02T05:35:32.397Z,0.51
2023-01-02T05:38:21.220Z,0.48
2023-01-02T05:41:08.971Z,0.52
2023-01-02T05:43:56.959Z,0.48
2023-01-02T05:46:44.674Z,0.45
2023-01-02T05:49:34.834Z,0.46
2023-01-02T05:52:26.804Z,0.38
2023-01-02T05:55:16.899Z,0.49
2023-01-02T05:58:04.550Z,0.44
2023-01-02T06:00:52.321Z,0.36
2023-01-02T06:03:40.420Z,0.34
2023-01-02T06:06:34.557Z,0.37
2023-01-02T06:09:22.246Z,0.36
2023-01-02T06:12:12.906Z,0.40
2023-01-02T06:15:00.651Z,0.44
2023-01-02T06:17:48.380Z,0.45
2023-01-02T06:20:36.173Z,0.56
2023-01-02T06:23:24.612Z,0.57
2023-01-02T06:26:18.194Z,0.50
2023-01-02T06:29:05.919Z,0.55
2023-01-02T06:31:55.893Z,0.66
2023-01-02T06:34:46.781Z,0.65
2023-01-02T06:37:34.518Z,0.82
2023-01-02T06:44:15.436Z,0.92
2023-01-02T06:47:03.115Z,1.05
2023-01-02T06:49:50.807Z,1.01
2023-01-02T06:52:38.508Z,1.25
2023-01-02T06:55:26.118Z,1.30
2023-01-02T06:58:19.250Z,1.41
2023-01-02T07:01:11.577Z,1.43
2023-01-02T07:03:59.425Z,1.62
2023-01-02T07:06:49.436Z,1.62
2023-01-02T07:09:37.225Z,1.56
2023-01-02T07:12:24.796Z,1.78
2023-01-02T07:15:12.555Z,1.94
2023-01-02T07:18:00.183Z,2.04
2023-01-02T07:20:54.392Z,2.12
2023-01-02T07:23:42.859Z,2.31
2023-01-02T07:26:30.636Z,2.36
2023-01-02T07:29:18.648Z,2.57
2023-01-02T07:32:06.521Z,2.67
2023-01-02T07:34:54.598Z,2.83
2023-01-02T07:37:42.308Z,3.18
2023-01-02T07:40:32.330Z,3.24
2023-01-02T07:43:21.907Z,3.43
2023-01-02T07:46:09.614Z,3.54
2023-01-02T07:48:57.293Z,3.70
2023-01-02T07:51:45.053Z,5.05
2023-01-02T07:54:32.658Z,6.41
2023-01-02T07:57:20.474Z,7.84
2023-01-02T08:00:08.961Z,8.73
2023-01-02T08:02:59.640Z,9.23
2023-01-02T08:05:50.869Z,9.22
2023-01-02T08:08:39.142Z,9.75
2023-01-02T08:11:27.907Z,10.17
2023-01-02T08:14:21.590Z,10.49
2023-01-02T08:17:13.571Z,10.74
2023-01-02T08:20:07.168Z,11.26
2023-01-02T08:22:56.792Z,11.39
2023-01-02T08:25:44.529Z,11.23
2023-01-02T08:28:36.330Z,10.63
2023-01-02T08:31:27.029Z,10.77
2023-01-02T08:34:15.454Z,10.29
2023-01-02T08:37:09.167Z,10.27
2023-01-02T08:39:59.795Z,10.25
2023-01-02T08:42:47.429Z,10.00
2023-01-02T08:45:35.628Z,10.20
2023-01-02T08:48:23.348Z,10.45
2023-01-02T08:51:11.925Z,10.65
2023-01-02T08:53:59.638Z,10.91
2023-01-02T08:56:48.803Z,11.18
2023-01-02T09:00:08.810Z,11.22
2023-01-02T09:02:57.289Z,11.28
2023-01-02T09:05:45.079Z,10.63
2023-01-02T09:08:32.757Z,10.94
2023-01-02T09:11:23.861Z,10.97
2023-01-02T09:14:40.296Z,11.08
2023-01-02T09:17:44.943Z,11.60
2023-01-02T09:20:32.630Z,11.74
2023-01-02T09:24:53.721Z,11.96
2023-01-02T09:27:43.663Z,11.67
2023-01-02T09:30:32.833Z,11.94
2023-01-02T09:33:20.632Z,12.32
2023-01-02T09:36:12.079Z,12.29
2023-01-02T09:39:01.570Z,12.59
2023-01-02T09:41:56.061Z,12.92
2023-01-02T09:44:52.530Z,12.86
2023-01-02T09:47:42.178Z,13.00
2023-01-02T09:50:33.431Z,13.15
2023-01-02T09:53:21.061Z,13.30
2023-01-02T09:56:21.018Z,13.38
2023-01-02T09:59:32.057Z,13.82
2023-01-02T10:02:31.826Z,13.85
2023-01-02T10:05:35.456Z,13.76
2023-01-02T10:08:44.316Z,13.86
2023-01-02T10:11:43.749Z,13.71
2023-01-02T10:15:12.366Z,13.77
2023-01-02T10:18:10.125Z,13.98
2023-01-02T10:21:05.807Z,14.36
2023-01-02T10:24:28.515Z,14.63
2023-01-02T10:27:21.607Z,14.67
2023-01-02T10:30:22.975Z,14.89
2023-01-02T10:33:28.474Z,14.63
2023-01-02T10:36:27.440Z,14.96
2023-01-02T10:39:19.093Z,15.05
2023-01-02T10:42:07.106Z,14.92
2023-01-02T10:44:57.394Z,15.24
2023-01-02T10:47:52.081Z,15.20
2023-01-02T10:50:48.820Z,15.47
2023-01-02T10:53:37.686Z,15.22
2023-01-02T10:56:37.271Z,15.03
2023-01-02T10:59:30.075Z,15.14
2023-01-02T11:02:37.711Z,15.40
2023-01-02T11:05:31.789Z,15.50
2023-01-02T11:08:24.513Z,15.11
2023-01-02T11:11:20.679Z,14.95
2023-01-02T11:14:11.225Z,15.40
2023-01-02T11:17:10.633Z,15.53
2023-01-02T11:20:00.634Z,15.58
2023-01-02T11:22:48.535Z,15.50
2023-01-02T11:25:47.850Z,15.39
2023-01-02T11:28:39.233Z,15.48
2023-01-02T11:31:27.297Z,15.48
2023-01-02T11:34:34.596Z,15.43
2023-01-02T11:37:22.295Z,15.29
2023-01-02T11:40:27.246Z,15.05
2023-01-02T11:43:33.668Z,15.27
2023-01-02T11:46:31.551Z,15.36
2023-01-02T11:49:29.880Z,15.17
2023-01-02T11:52:21.593Z,15.46
2023-01-02T11:55:33.139Z,15.45
2023-01-02T11:58:51.619Z,15.40
2023-01-02T12:01:55.992Z,15.36
2023-01-02T12:04:43.758Z,15.31
2023-01-02T12:07:45.621Z,15.32
2023-01-02T12:10:47.703Z,15.14
2023-01-02T12:14:00.657Z,15.24
2023-01-02T12:16:48.221Z,15.29
2023-01-02T12:20:15.114Z,15.32
2023-01-02T12:23:40.720Z,15.26
2023-01-02T12:26:57.444Z,15.25
2023-01-02T12:29:53.119Z,15.32
2023-01-02T12:33:08.356Z,15.16
2023-01-02T12:36:08.116Z,15.40
2023-01-02T12:39:05.749Z,15.36
2023-01-02T12:42:02.397Z,15.30
2023-01-02T12:44:58.854Z,15.45
2023-01-02T12:48:01.583Z,15.33
2023-01-02T12:50:56.410Z,15.36
2023-01-02T12:53:47.391Z,15.31
2023-01-02T12:57:25.367Z,15.22
2023-01-02T13:00:24.759Z,15.20
2023-01-02T13:03:51.194Z,15.17
2023-01-02T13:07:08.564Z,15.15
2023-01-02T13:09:58.971Z,15.03
2023-01-02T13:12:47.726Z,14.92
2023-01-02T13:15:37.737Z,14.91
2023-01-02T13:19:00.231Z,14.77
2023-01-02T13:22:39.391Z,14.69
2023-01-02T13:25:31.136Z,14.47
2023-01-02T13:28:20.066Z,14.40
2023-01-02T13:31:44.642Z,14.15
2023-01-02T13:34:30.644Z,14.11
2023-01-02T13:37:25.248Z,14.08
2023-01-02T13:40:25.640Z,13.95
2023-01-02T13:43:25.820Z,13.87
2023-01-02T13:46:53.381Z,13.75
2023-01-02T13:49:28.963Z,13.59
2023-01-02T13:52:24.189Z,13.26
2023-01-02T13:55:28.742Z,13.35
2023-01-02T13:58:19.675Z,13.21
2023-01-02T14:01:23.080Z,13.44
2023-01-02T14:04:13.604Z,13.26
2023-01-02T14:07:29.802Z,13.04
2023-01-02T14:10:27.360Z,12.90
2023-01-02T14:13:23.415Z,12.76
2023-01-02T14:16:12.084Z,12.63
2023-01-02T14:19:13.609Z,12.48
2023-01-02T14:22:13.289Z,12.37
2023-01-02T14:25:06.146Z,12.20
2023-01-02T14:28:04.931Z,12.10
2023-01-02T14:30:56.874Z,11.93
2023-01-02T14:33:52.471Z,11.76
2023-01-02T14:36:48.741Z,11.59
2023-01-02T14:39:37.160Z,11.46
2023-01-02T14:42:52.357Z,11.26
2023-01-02T14:46:00.652Z,11.02
2023-01-02T14:49:25.031Z,11.10
2023-01-02T14:52:28.276Z,10.74
2023-01-02T14:55:27.584Z,10.52
2023-01-02T14:58:39.371Z,10.36
2023-01-02T15:01:43.352Z,10.21
2023-01-02T15:04:40.386Z,10.19
2023-01-02T15:07:35.495Z,9.49
2023-01-02T15:10:24.242Z,9.67
2023-01-02T15:13:12.112Z,9.70
2023-01-02T15:16:09.436Z,9.46
2023-01-02T15:19:09.518Z,9.32
2023-01-02T15:22:12.800Z,9.02
2023-01-02T15:25:01.087Z,9.10
2023-01-02T15:27:54.215Z,8.99
2023-01-02T15:30:42.932Z,8.93
2023-01-02T15:33:33.503Z,8.61
2023-01-02T15:36:38.909Z,8.41
2023-01-02T15:39:35.784Z,8.39
2023-01-02T15:42:45.443Z,8.38
2023-01-02T15:46:00.374Z,8.28
2023-01-02T15:48:50.537Z,8.17
2023-01-02T15:51:41.888Z,8.13
2023-01-02T15:54:58.015Z,7.38
2023-01-02T15:57:51.877Z,7.79
2023-01-02T16:00:42.508Z,7.68
2023-01-02T16:04:01.794Z,7.99
2023-01-02T16:07:53.219Z,7.65
2023-01-02T16:11:21.005Z,7.57
2023-01-02T16:14:22.447Z,7.20
2023-01-02T16:17:32.804Z,7.61
2023-01-02T16:20:22.229Z,7.39
2023-01-02T16:23:20.916Z,7.30
2023-01-02T16:26:14.551Z,6.76
2023-01-02T16:29:02.455Z,7.06
2023-01-02T16:32:02.766Z,6.91
2023-01-02T16:35:24.182Z,6.82
2023-01-02T16:38:28.163Z,6.92
2023-01-02T16:41:45.020Z,6.89
2023-01-02T16:44:35.803Z,6.90
2023-01-02T16:47:37.953Z,7.06
2023-01-02T16:50:28.528Z,6.96
2023-01-02T16:53:36.664Z,6.90
2023-01-02T16:56:24.424Z,6.78
2023-01-02T16:59:12.216Z,6.73
2023-01-02T17:02:00.075Z,6.64
2023-01-02T17:04:50.277Z,6.72
2023-01-02T17:07:41.031Z,6.62
2023-01-02T17:10:29.522Z,6.77
2023-01-02T17:13:23.372Z,6.60
2023-01-02T17:16:14.824Z,6.58
2023-01-02T17:19:02.479Z,6.52
2023-01-02T17:21:50.991Z,6.41
2023-01-02T17:24:38.917Z,6.29
2023-01-02T17:27:26.690Z,6.25
2023-01-02T17:30:15.777Z,6.11
2023-01-02T17:33:04.449Z,5.98
2023-01-02T17:35:54.768Z,5.89
2023-01-02T17:38:42.529Z,5.83
2023-01-02T17:41:30.330Z,5.75
2023-01-02T17:44:21.025Z,5.66
2023-01-02T17:47:56.939Z,5.75
2023-01-02T17:50:22.128Z,5.81
2023-01-02T17:53:09.787Z,5.64
2023-01-02T17:56:21.657Z,5.40
2023-01-02T17:59:07.146Z,5.59
2023-01-02T18:01:54.872Z,5.36
2023-01-02T18:04:48.220Z,5.33
2023-01-02T18:07:40.328Z,5.14
2023-01-02T18:10:33.112Z,5.10
2023-01-02T18:13:23.889Z,5.13
2023-01-02T18:16:21.441Z,4.90
2023-01-02T18:19:21.912Z,4.33
2023-01-02T18:22:24.635Z,4.83
2023-01-02T18:25:20.126Z,4.68
2023-01-02T18:28:26.852Z,4.58
2023-01-02T18:31:17.668Z,4.67
2023-01-02T18:34:46.992Z,4.64
2023-01-02T18:37:33.246Z,4.58
2023-01-02T18:40:27.919Z,4.50
2023-01-02T18:43:35.996Z,4.44
2023-01-02T18:47:04.379Z,4.40
2023-01-02T18:49:45.663Z,4.44
2023-01-02T18:52:33.993Z,4.44
2023-01-02T18:55:28.034Z,4.43
2023-01-02T18:58:41.225Z,4.39
2023-01-02T19:01:36.140Z,4.26
2023-01-02T19:04:30.855Z,4.37
2023-01-02T19:07:30.134Z,4.25
2023-01-02T19:10:39.215Z,4.26
2023-01-02T19:13:34.333Z,4.23
2023-01-02T19:16:22.157Z,4.10
2023-01-02T19:19:18.083Z,4.32
2023-01-02T19:22:13.685Z,4.27
2023-01-02T19:25:09.080Z,4.12
2023-01-02T19:27:58.651Z,4.20
2023-01-02T19:30:50.010Z,4.28
2023-01-02T19:33:41.672Z,4.28
2023-01-02T19:36:43.081Z,4.29
2023-01-02T19:39:38.695Z,4.28
2023-01-02T19:42:32.103Z,4.44
2023-01-02T19:45:22.502Z,4.54
2023-01-02T19:48:14.901Z,4.24
2023-01-02T19:51:05.630Z,4.28
2023-01-02T19:53:56.338Z,4.16
2023-01-02T19:56:46.417Z,4.17
2023-01-02T19:59:40.039Z,4.06
2023-01-02T20:02:34.076Z,3.88
2023-01-02T20:05:23.111Z,3.86
2023-01-02T20:08:11.344Z,3.81
2023-01-02T20:11:01.488Z,3.70
2023-01-02T20:13:50.038Z,3.80
2023-01-02T20:16:37.843Z,3.72
2023-01-02T20:19:26.093Z,3.68
2023-01-02T20:22:13.759Z,3.58
2023-01-02T20:25:02.557Z,3.55
2023-01-02T20:27:51.755Z,3.46
2023-01-02T20:30:42.168Z,3.22
2023-01-02T20:33:30.719Z,3.33
2023-01-02T20:36:18.721Z,3.27
2023-01-02T20:39:07.033Z,3.32
2023-01-02T20:41:54.728Z,3.20
2023-01-02T20:44:42.794Z,3.22
2023-01-02T20:47:30.521Z,3.17
2023-01-02T20:50:18.374Z,2.94
2023-01-02T20:53:07.208Z,3.24
2023-01-02T20:55:55.038Z,3.18
2023-01-02T20:58:42.755Z,3.14
2023-01-02T21:01:33.200Z,3.18
2023-01-02T21:04:25.646Z,3.07
2023-01-02T21:07:17.929Z,2.95
2023-01-02T21:10:06.089Z,2.99
2023-01-02T21:13:09.848Z,2.87
2023-01-02T21:15:58.984Z,2.93
2023-01-02T21:18:46.840Z,2.99
2023-01-02T21:21:34.451Z,2.83
2023-01-02T21:24:22.081Z,2.91
2023-01-02T21:27:13.623Z,2.78
2023-01-02T21:30:01.338Z,2.70
2023-01-02T21:32:49.041Z,2.76
2023-01-02T21:35:37.732Z,2.79
2023-01-02T21:38:26.926Z,2.77
2023-01-02T21:41:33.101Z,2.73
2023-01-02T21:44:20.910Z,2.73
2023-01-02T21:47:08.671Z,2.64
2023-01-02T21:49:56.407Z,2.60
2023-01-02T21:52:44.376Z,2.54
2023-01-02T21:55:32.191Z,2.45
2023-01-02T21:58:21.008Z,2.65
2023-01-02T22:01:08.737Z,2.34
2023-01-02T22:03:57.583Z,2.49
2023-01-02T22:07:29.621Z,2.55
2023-01-02T22:09:53.137Z,2.30
2023-01-02T22:12:41.342Z,2.42
2023-01-02T22:15:28.967Z,2.38
2023-01-02T22:18:16.819Z,2.45
2023-01-02T22:21:04.532Z,2.50
2023-01-02T22:23:52.226Z,2.19
2023-01-02T22:26:41.336Z,2.33
2023-01-02T22:29:51.617Z,2.42
2023-01-02T22:32:37.785Z,2.33
2023-01-02T22:35:25.534Z,2.24
2023-01-02T22:38:13.321Z,2.21
2023-01-02T22:41:01.382Z,2.06
2023-01-02T22:43:49.183Z,2.12
2023-01-02T22:46:43.867Z,2.07
2023-01-02T22:49:38.603Z,1.94
2023-01-02T22:52:27.197Z,2.03
2023-01-02T22:55:20.764Z,1.90
2023-01-02T22:58:08.909Z,1.89
2023-01-02T23:01:19.308Z,2.09
2023-01-02T23:04:18.664Z,1.97
2023-01-02T23:07:23.183Z,2.02
2023-01-02T23:10:14.531Z,2.06
2023-01-02T23:13:02.374Z,2.02
2023-01-02T23:16:08.576Z,1.98
2023-01-02T23:19:14.663Z,1.65
2023-01-02T23:22:02.377Z,1.87
2023-01-02T23:24:50.671Z,1.87
2023-01-02T23:27:41.333Z,1.92
2023-01-02T23:30:28.948Z,1.91
2023-01-02T23:33:16.650Z,1.65
2023-01-02T23:36:04.801Z,1.68
2023-01-02T23:38:52.489Z,1.80
2023-01-02T23:41:41.858Z,1.74
2023-01-02T23:44:29.776Z,1.78
2023-01-02T23:47:19.465Z,1.62
2023-01-02T23:50:07.411Z,1.41
2023-01-02T23:52:55.110Z,1.63
2023-01-02T23:55:45.014Z,1.56
2023-01-02T23:58:32.718Z,1.58
